createdAt,value
2024-02-29T00:00:56.788Z,1007.36
2024-02-29T00:01:56.834Z,1007.34
2024-02-29T00:02:56.750Z,1007.35
2024-02-29T00:03:59.653Z,1007.32
2024-02-29T00:05:02.503Z,1007.3
2024-02-29T00:06:04.047Z,1007.28
2024-02-29T00:07:56.805Z,1007.2
2024-02-29T00:08:56.941Z,1007.18
2024-02-29T00:09:56.794Z,1007.2
2024-02-29T00:10:56.793Z,1007.18
2024-02-29T00:11:56.984Z,1007.22
2024-02-29T00:12:57.063Z,1007.18
2024-02-29T00:13:57.070Z,1007.14
2024-02-29T00:14:57.033Z,1007.13
2024-02-29T00:15:56.794Z,1007.12
2024-02-29T00:16:56.912Z,1007.15
2024-02-29T00:17:56.907Z,1007.16
2024-02-29T00:18:56.757Z,1007.1
2024-02-29T00:19:56.759Z,1007.13
2024-02-29T00:20:56.767Z,1007.13
2024-02-29T00:21:56.844Z,1007.17
2024-02-29T00:22:56.754Z,1007.15
2024-02-29T00:23:56.754Z,1007.12
2024-02-29T00:24:59.792Z,1007.13
2024-02-29T00:26:02.661Z,1007.16
2024-02-29T00:27:04.445Z,1007.17
2024-02-29T00:28:56.754Z,1007.11
2024-02-29T00:29:56.769Z,1007.13
2024-02-29T00:30:56.783Z,1007.11
2024-02-29T00:31:56.784Z,1007.14
2024-02-29T00:32:59.770Z,1007.09
2024-02-29T00:34:56.773Z,1007.15
2024-02-29T00:36:04.842Z,1007.13
2024-02-29T00:36:56.799Z,1007.14
2024-02-29T00:37:56.752Z,1007.19
2024-02-29T00:39:09.652Z,1007.15
2024-02-29T00:40:56.909Z,1007.16
2024-02-29T00:41:56.849Z,1007.14
2024-02-29T00:42:56.770Z,1007.14
2024-02-29T00:43:56.834Z,1007.18
2024-02-29T00:44:56.942Z,1007.15
2024-02-29T00:45:56.972Z,1007.12
2024-02-29T00:46:56.970Z,1007.14
2024-02-29T00:47:59.973Z,1007.08
2024-02-29T00:49:03.268Z,1007.12
2024-02-29T00:50:02.975Z,1007.09
2024-02-29T00:50:57.099Z,1007.11
2024-02-29T00:51:57.098Z,1007.07
2024-02-29T00:52:56.766Z,1007.08
2024-02-29T00:53:57.203Z,1007.08
2024-02-29T00:54:56.925Z,1007.03
2024-02-29T00:55:56.764Z,1007.05
2024-02-29T00:56:56.765Z,1007.01
2024-02-29T00:57:56.784Z,1006.96
2024-02-29T00:58:56.789Z,1007
2024-02-29T00:59:56.761Z,1007
2024-02-29T01:00:56.878Z,1007.03
2024-02-29T01:01:56.960Z,1006.97
2024-02-29T01:02:56.763Z,1007
2024-02-29T01:03:56.815Z,1007.01
2024-02-29T01:04:56.802Z,1007.02
2024-02-29T01:05:56.762Z,1007
2024-02-29T01:06:56.785Z,1006.99
2024-02-29T01:07:57.186Z,1007.02
2024-02-29T01:09:00.234Z,1006.97
2024-02-29T01:10:03.300Z,1006.94
2024-02-29T01:11:03.131Z,1006.96
2024-02-29T01:11:56.957Z,1006.97
2024-02-29T01:12:57.167Z,1006.95
2024-02-29T01:13:56.759Z,1006.92
2024-02-29T01:14:56.909Z,1006.96
2024-02-29T01:15:56.955Z,1006.95
2024-02-29T01:16:56.771Z,1006.95
2024-02-29T01:17:56.783Z,1006.92
2024-02-29T01:18:56.963Z,1006.92
2024-02-29T01:19:57.127Z,1006.92
2024-02-29T01:20:56.759Z,1006.91
2024-02-29T01:21:56.958Z,1006.91
2024-02-29T01:22:57.058Z,1006.91
2024-02-29T01:23:57.111Z,1006.92
2024-02-29T01:24:57.084Z,1006.85
2024-02-29T01:25:56.981Z,1006.87
2024-02-29T01:26:56.984Z,1006.81
2024-02-29T01:27:57.203Z,1006.82
2024-02-29T01:28:57.292Z,1006.78
2024-02-29T01:30:00.345Z,1006.78
2024-02-29T01:31:03.448Z,1006.75
2024-02-29T01:32:09.168Z,1006.74
2024-02-29T01:32:56.774Z,1006.7
2024-02-29T01:33:56.783Z,1006.69
2024-02-29T01:34:56.765Z,1006.64
2024-02-29T01:35:56.766Z,1006.62
2024-02-29T01:36:56.965Z,1006.63
2024-02-29T01:37:56.775Z,1006.58
2024-02-29T01:38:56.768Z,1006.56
2024-02-29T01:39:56.877Z,1006.58
2024-02-29T01:40:56.765Z,1006.57
2024-02-29T01:41:56.793Z,1006.55
2024-02-29T01:42:56.835Z,1006.53
2024-02-29T01:43:56.810Z,1006.56
2024-02-29T01:44:56.777Z,1006.5
2024-02-29T01:45:56.789Z,1006.54
2024-02-29T01:46:56.798Z,1006.49
2024-02-29T01:47:56.799Z,1006.5
2024-02-29T01:48:56.827Z,1006.46
2024-02-29T01:49:57.385Z,1006.5
2024-02-29T01:51:00.389Z,1006.49
2024-02-29T01:52:03.543Z,1006.52
2024-02-29T01:53:03.193Z,1006.51
2024-02-29T01:53:56.824Z,1006.51
2024-02-29T01:54:57.307Z,1006.49
2024-02-29T01:55:56.941Z,1006.46
2024-02-29T01:56:56.934Z,1006.47
2024-02-29T01:57:57.161Z,1006.45
2024-02-29T01:58:56.782Z,1006.44
2024-02-29T01:59:56.775Z,1006.43
2024-02-29T02:00:57.236Z,1006.42
2024-02-29T02:01:56.832Z,1006.38
2024-02-29T02:02:56.771Z,1006.4
2024-02-29T02:03:56.874Z,1006.38
2024-02-29T02:04:56.769Z,1006.3
2024-02-29T02:05:56.781Z,1006.29
2024-02-29T02:06:56.799Z,1006.3
2024-02-29T02:07:56.779Z,1006.3
2024-02-29T02:08:56.763Z,1006.21
2024-02-29T02:09:56.791Z,1006.26
2024-02-29T02:10:57.466Z,1006.22
2024-02-29T02:12:00.571Z,1006.24
2024-02-29T02:13:03.572Z,1006.25
2024-02-29T02:14:03.270Z,1006.22
2024-02-29T02:14:56.769Z,1006.23
2024-02-29T02:15:57.734Z,1006.18
2024-02-29T02:16:56.791Z,1006.2
2024-02-29T02:17:56.992Z,1006.19
2024-02-29T02:18:56.794Z,1006.15
2024-02-29T02:19:56.770Z,1006.17
2024-02-29T02:20:56.765Z,1006.14
2024-02-29T02:21:56.846Z,1006.12
2024-02-29T02:22:56.760Z,1006.11
2024-02-29T02:23:56.768Z,1006.12
2024-02-29T02:24:57.163Z,1006.1
2024-02-29T02:25:57.026Z,1006.09
2024-02-29T02:26:56.864Z,1006.09
2024-02-29T02:27:56.808Z,1006.08
2024-02-29T02:28:56.758Z,1006.03
2024-02-29T02:29:56.759Z,1006.04
2024-02-29T02:30:56.842Z,1005.99
2024-02-29T02:31:57.628Z,1006.01
2024-02-29T02:33:00.779Z,1005.99
2024-02-29T02:34:03.642Z,1005.96
2024-02-29T02:35:03.363Z,1005.99
2024-02-29T02:35:56.796Z,1005.98
2024-02-29T02:36:56.851Z,1005.97
2024-02-29T02:37:57.061Z,1005.95
2024-02-29T02:38:56.757Z,1005.94
2024-02-29T02:39:56.796Z,1005.92
2024-02-29T02:40:56.775Z,1005.89
2024-02-29T02:41:56.781Z,1005.9
2024-02-29T02:42:56.957Z,1005.86
2024-02-29T02:43:56.754Z,1005.87
2024-02-29T02:44:56.932Z,1005.84
2024-02-29T02:45:56.895Z,1005.82
2024-02-29T02:46:56.996Z,1005.81
2024-02-29T02:47:56.844Z,1005.8
2024-02-29T02:48:57.058Z,1005.8
2024-02-29T02:49:56.780Z,1005.81
2024-02-29T02:50:56.836Z,1005.83
2024-02-29T02:51:56.844Z,1005.83
2024-02-29T02:52:57.688Z,1005.77
2024-02-29T02:54:00.777Z,1005.74
2024-02-29T02:55:03.797Z,1005.73
2024-02-29T02:56:03.493Z,1005.76
2024-02-29T02:56:56.803Z,1005.73
2024-02-29T02:57:56.780Z,1005.72
2024-02-29T02:58:56.766Z,1005.67
2024-02-29T02:59:56.773Z,1005.67
2024-02-29T03:00:56.793Z,1005.61
2024-02-29T03:01:56.802Z,1005.6
2024-02-29T03:02:56.762Z,1005.62
2024-02-29T03:03:56.802Z,1005.62
2024-02-29T03:04:56.762Z,1005.6
2024-02-29T03:05:56.759Z,1005.57
2024-02-29T03:06:56.940Z,1005.59
2024-02-29T03:07:56.992Z,1005.52
2024-02-29T03:08:56.771Z,1005.49
2024-02-29T03:09:56.819Z,1005.5
2024-02-29T03:10:56.854Z,1005.5
2024-02-29T03:11:56.785Z,1005.51
2024-02-29T03:12:56.799Z,1005.47
2024-02-29T03:13:57.617Z,1005.49
2024-02-29T03:15:00.765Z,1005.53
2024-02-29T03:16:03.951Z,1005.46
2024-02-29T03:17:03.635Z,1005.46
2024-02-29T03:17:57.202Z,1005.42
2024-02-29T03:18:56.818Z,1005.46
2024-02-29T03:19:56.765Z,1005.41
2024-02-29T03:20:56.775Z,1005.41
2024-02-29T03:21:56.888Z,1005.39
2024-02-29T03:22:56.917Z,1005.41
2024-02-29T03:23:56.762Z,1005.38
2024-02-29T03:24:56.803Z,1005.35
2024-02-29T03:25:56.763Z,1005.35
2024-02-29T03:26:56.791Z,1005.29
2024-02-29T03:27:56.785Z,1005.36
2024-02-29T03:28:56.767Z,1005.3
2024-02-29T03:29:56.774Z,1005.31
2024-02-29T03:30:56.802Z,1005.33
2024-02-29T03:31:56.793Z,1005.29
2024-02-29T03:32:56.904Z,1005.28
2024-02-29T03:33:57.030Z,1005.29
2024-02-29T03:34:56.840Z,1005.27
2024-02-29T03:35:56.776Z,1005.29
2024-02-29T03:36:59.077Z,1005.27
2024-02-29T03:38:01.861Z,1005.26
2024-02-29T03:39:04.434Z,1005.24
2024-02-29T03:40:56.849Z,1005.21
2024-02-29T03:41:56.794Z,1005.21
2024-02-29T03:42:56.808Z,1005.19
2024-02-29T03:43:56.845Z,1005.15
2024-02-29T03:44:59.770Z,1005.2
2024-02-29T03:46:56.809Z,1005.17
2024-02-29T03:47:56.866Z,1005.16
2024-02-29T03:48:56.882Z,1005.13
2024-02-29T03:49:56.810Z,1005.12
2024-02-29T03:50:56.774Z,1005.09
2024-02-29T03:51:56.806Z,1005.07
2024-02-29T03:52:56.777Z,1005.07
2024-02-29T03:53:56.878Z,1005.07
2024-02-29T03:54:57.079Z,1005.08
2024-02-29T03:55:56.771Z,1004.99
2024-02-29T03:56:56.790Z,1005.01
2024-02-29T03:57:59.158Z,1004.95
2024-02-29T03:59:01.913Z,1004.92
2024-02-29T04:00:02.884Z,1004.93
2024-02-29T04:01:57.173Z,1004.88
2024-02-29T04:02:57.064Z,1004.88
2024-02-29T04:03:56.860Z,1004.87
2024-02-29T04:04:56.904Z,1004.84
2024-02-29T04:05:56.780Z,1004.84
2024-02-29T04:06:56.855Z,1004.83
2024-02-29T04:07:56.770Z,1004.84
2024-02-29T04:08:56.788Z,1004.81
2024-02-29T04:09:56.796Z,1004.72
2024-02-29T04:10:56.810Z,1004.71
2024-02-29T04:11:56.964Z,1004.67
2024-02-29T04:12:56.860Z,1004.66
2024-02-29T04:13:56.821Z,1004.64
2024-02-29T04:14:57.240Z,1004.62
2024-02-29T04:15:57.139Z,1004.61
2024-02-29T04:16:56.846Z,1004.56
2024-02-29T04:17:56.838Z,1004.57
2024-02-29T04:18:59.167Z,1004.55
2024-02-29T04:20:02.455Z,1004.6
2024-02-29T04:21:02.948Z,1004.54
2024-02-29T04:22:57.262Z,1004.51
2024-02-29T04:23:56.785Z,1004.49
2024-02-29T04:24:56.842Z,1004.45
2024-02-29T04:25:56.765Z,1004.47
2024-02-29T04:26:56.790Z,1004.51
2024-02-29T04:27:56.900Z,1004.46
2024-02-29T04:28:56.768Z,1004.42
2024-02-29T04:29:56.843Z,1004.45
2024-02-29T04:30:56.874Z,1004.45
2024-02-29T04:31:56.794Z,1004.42
2024-02-29T04:32:57.179Z,1004.41
2024-02-29T04:33:57.233Z,1004.39
2024-02-29T04:34:56.810Z,1004.4
2024-02-29T04:35:56.822Z,1004.37
2024-02-29T04:36:57.142Z,1004.32
2024-02-29T04:37:56.851Z,1004.28
2024-02-29T04:38:56.809Z,1004.34
2024-02-29T04:39:59.304Z,1004.27
2024-02-29T04:41:02.150Z,1004.28
2024-02-29T04:42:02.840Z,1004.27
2024-02-29T04:43:56.956Z,1004.28
2024-02-29T04:44:56.821Z,1004.28
2024-02-29T04:45:56.856Z,1004.2
2024-02-29T04:46:56.878Z,1004.27
2024-02-29T04:47:56.816Z,1004.22
2024-02-29T04:48:56.826Z,1004.25
2024-02-29T04:49:56.858Z,1004.18
2024-02-29T04:50:56.842Z,1004.22
2024-02-29T04:51:56.844Z,1004.19
2024-02-29T04:52:56.845Z,1004.22
2024-02-29T04:53:56.837Z,1004.28
2024-02-29T04:54:56.840Z,1004.23
2024-02-29T04:55:56.835Z,1004.26
2024-02-29T04:56:56.847Z,1004.22
2024-02-29T04:57:56.761Z,1004.15
2024-02-29T04:58:56.829Z,1004.21
2024-02-29T04:59:57.753Z,1004.16
2024-02-29T05:00:57.496Z,1004.19
2024-02-29T05:02:06.231Z,1004.18
2024-02-29T05:03:02.501Z,1004.17
2024-02-29T05:04:56.828Z,1004.17
2024-02-29T05:05:56.753Z,1004.1
2024-02-29T05:06:56.779Z,1004.12
2024-02-29T05:07:56.765Z,1004.13
2024-02-29T05:08:56.767Z,1004.15
2024-02-29T05:09:56.769Z,1004.1
2024-02-29T05:10:56.888Z,1004.13
2024-02-29T05:11:56.861Z,1004.12
2024-02-29T05:12:56.799Z,1004.13
2024-02-29T05:13:56.763Z,1004.15
2024-02-29T05:14:56.779Z,1004.13
2024-02-29T05:15:56.787Z,1004.12
2024-02-29T05:16:56.785Z,1004.11
2024-02-29T05:17:56.847Z,1004.15
2024-02-29T05:18:56.778Z,1004.08
2024-02-29T05:19:56.767Z,1004.09
2024-02-29T05:20:56.759Z,1004.12
2024-02-29T05:21:59.654Z,1004.07
2024-02-29T05:23:02.296Z,1004
2024-02-29T05:24:03.832Z,1004.01
2024-02-29T05:25:56.785Z,1003.98
2024-02-29T05:26:56.796Z,1004.01
2024-02-29T05:27:56.803Z,1003.99
2024-02-29T05:28:56.845Z,1003.96
2024-02-29T05:29:56.786Z,1003.98
2024-02-29T05:30:56.800Z,1003.97
2024-02-29T05:31:56.987Z,1003.95
2024-02-29T05:32:57.007Z,1004.01
2024-02-29T05:33:56.817Z,1003.95
2024-02-29T05:34:56.801Z,1003.91
2024-02-29T05:35:56.822Z,1003.92
2024-02-29T05:36:56.804Z,1003.92
2024-02-29T05:38:02.772Z,1003.85
2024-02-29T05:39:56.800Z,1003.85
2024-02-29T05:40:56.807Z,1003.85
2024-02-29T05:41:56.786Z,1003.84
2024-02-29T05:42:59.535Z,1003.81
2024-02-29T05:44:02.435Z,1003.76
2024-02-29T05:45:03.979Z,1003.76
2024-02-29T05:46:56.805Z,1003.74
2024-02-29T05:47:56.811Z,1003.7
2024-02-29T05:48:56.773Z,1003.68
2024-02-29T05:49:56.774Z,1003.64
2024-02-29T05:50:56.768Z,1003.67
2024-02-29T05:51:56.880Z,1003.61
2024-02-29T05:52:56.993Z,1003.64
2024-02-29T05:53:57.003Z,1003.61
2024-02-29T05:54:56.777Z,1003.6
2024-02-29T05:55:56.770Z,1003.6
2024-02-29T05:56:56.779Z,1003.61
2024-02-29T05:57:56.783Z,1003.54
2024-02-29T05:58:56.799Z,1003.55
2024-02-29T05:59:56.787Z,1003.57
2024-02-29T06:00:56.841Z,1003.55
2024-02-29T06:01:56.897Z,1003.59
2024-02-29T06:02:56.764Z,1003.56
2024-02-29T06:03:59.689Z,1003.56
2024-02-29T06:05:02.666Z,1003.59
2024-02-29T06:06:04.047Z,1003.55
2024-02-29T06:07:56.826Z,1003.6
2024-02-29T06:08:56.763Z,1003.6
2024-02-29T06:09:56.789Z,1003.58
2024-02-29T06:10:56.785Z,1003.58
2024-02-29T06:11:56.770Z,1003.56
2024-02-29T06:12:56.803Z,1003.57
2024-02-29T06:13:56.748Z,1003.56
2024-02-29T06:14:57.085Z,1003.58
2024-02-29T06:15:56.842Z,1003.53
2024-02-29T06:16:56.776Z,1003.56
2024-02-29T06:17:56.947Z,1003.53
2024-02-29T06:18:56.789Z,1003.55
2024-02-29T06:19:56.777Z,1003.53
2024-02-29T06:20:56.771Z,1003.53
2024-02-29T06:21:56.797Z,1003.48
2024-02-29T06:22:56.771Z,1003.52
2024-02-29T06:23:56.753Z,1003.51
2024-02-29T06:24:59.767Z,1003.48
2024-02-29T06:26:02.746Z,1003.49
2024-02-29T06:27:04.167Z,1003.47
2024-02-29T06:28:56.777Z,1003.48
2024-02-29T06:29:56.773Z,1003.49
2024-02-29T06:30:56.793Z,1003.5
2024-02-29T06:31:56.807Z,1003.48
2024-02-29T06:32:56.785Z,1003.48
2024-02-29T06:33:56.840Z,1003.52
2024-02-29T06:34:56.781Z,1003.5
2024-02-29T06:35:56.766Z,1003.5
2024-02-29T06:36:56.799Z,1003.46
2024-02-29T06:37:56.817Z,1003.46
2024-02-29T06:38:56.800Z,1003.46
2024-02-29T06:39:56.794Z,1003.5
2024-02-29T06:40:56.777Z,1003.46
2024-02-29T06:41:56.827Z,1003.44
2024-02-29T06:42:56.837Z,1003.41
2024-02-29T06:43:56.768Z,1003.45
2024-02-29T06:44:56.766Z,1003.41
2024-02-29T06:46:00.099Z,1003.4
2024-02-29T06:47:02.716Z,1003.38
2024-02-29T06:48:04.284Z,1003.43
2024-02-29T06:49:56.776Z,1003.44
2024-02-29T06:50:56.765Z,1003.39
2024-02-29T06:51:56.810Z,1003.44
2024-02-29T06:52:57.787Z,1003.41
2024-02-29T06:53:56.762Z,1003.43
2024-02-29T06:54:56.817Z,1003.37
2024-02-29T06:55:56.760Z,1003.35
2024-02-29T06:56:56.819Z,1003.38
2024-02-29T06:57:56.779Z,1003.34
2024-02-29T06:58:56.774Z,1003.34
2024-02-29T06:59:56.942Z,1003.3
2024-02-29T07:00:56.842Z,1003.32
2024-02-29T07:01:56.828Z,1003.32
2024-02-29T07:02:56.756Z,1003.26
2024-02-29T07:03:56.810Z,1003.32
2024-02-29T07:04:56.757Z,1003.23
2024-02-29T07:05:56.775Z,1003.22
2024-02-29T07:06:58.664Z,1003.27
2024-02-29T07:08:01.158Z,1003.21
2024-02-29T07:09:03.026Z,1003.21
2024-02-29T07:11:00.241Z,1003.1
2024-02-29T07:11:56.806Z,1003.09
2024-02-29T07:12:56.891Z,1003.14
2024-02-29T07:13:56.769Z,1003.05
2024-02-29T07:14:56.771Z,1002.99
2024-02-29T07:15:56.797Z,1003.04
2024-02-29T07:16:56.805Z,1003.05
2024-02-29T07:17:56.834Z,1002.96
2024-02-29T07:18:56.793Z,1003.02
2024-02-29T07:19:56.787Z,1002.99
2024-02-29T07:20:56.764Z,1003.02
2024-02-29T07:21:56.815Z,1003.01
2024-02-29T07:22:56.778Z,1003.01
2024-02-29T07:23:56.973Z,1002.97
2024-02-29T07:24:56.786Z,1003.02
2024-02-29T07:25:56.771Z,1002.99
2024-02-29T07:26:56.992Z,1003.02
2024-02-29T07:28:00.111Z,1002.99
2024-02-29T07:29:03.017Z,1003
2024-02-29T07:30:04.446Z,1002.98
2024-02-29T07:31:57.890Z,1002.95
2024-02-29T07:32:56.801Z,1002.95
2024-02-29T07:33:56.794Z,1002.98
2024-02-29T07:34:56.781Z,1003
2024-02-29T07:35:56.760Z,1002.98
2024-02-29T07:36:56.873Z,1002.99
2024-02-29T07:37:56.798Z,1002.98
2024-02-29T07:38:56.810Z,1002.93
2024-02-29T07:39:56.804Z,1002.93
2024-02-29T07:40:56.761Z,1002.91
2024-02-29T07:41:56.831Z,1002.91
2024-02-29T07:42:56.780Z,1002.9
2024-02-29T07:43:56.768Z,1002.87
2024-02-29T07:44:56.875Z,1002.86
2024-02-29T07:45:56.828Z,1002.84
2024-02-29T07:46:56.811Z,1002.84
2024-02-29T07:47:57.050Z,1002.84
2024-02-29T07:49:00.136Z,1002.83
2024-02-29T07:50:03.019Z,1002.84
2024-02-29T07:51:03.220Z,1002.8
2024-02-29T07:52:56.946Z,1002.83
2024-02-29T07:53:56.773Z,1002.8
2024-02-29T07:54:56.784Z,1002.81
2024-02-29T07:55:56.817Z,1002.78
2024-02-29T07:56:56.792Z,1002.79
2024-02-29T07:57:56.780Z,1002.78
2024-02-29T07:58:56.770Z,1002.76
2024-02-29T07:59:56.779Z,1002.8
2024-02-29T08:00:56.856Z,1002.8
2024-02-29T08:01:56.830Z,1002.74
2024-02-29T08:02:56.788Z,1002.75
2024-02-29T08:03:56.844Z,1002.71
2024-02-29T08:04:56.795Z,1002.7
2024-02-29T08:05:56.779Z,1002.73
2024-02-29T08:06:56.819Z,1002.72
2024-02-29T08:07:56.782Z,1002.7
2024-02-29T08:08:56.764Z,1002.74
2024-02-29T08:09:56.790Z,1002.68
2024-02-29T08:10:57.620Z,1002.69
2024-02-29T08:12:00.841Z,1002.68
2024-02-29T08:13:03.785Z,1002.69
2024-02-29T08:14:03.375Z,1002.68
2024-02-29T08:14:56.760Z,1002.63
2024-02-29T08:15:56.796Z,1002.64
2024-02-29T08:16:56.796Z,1002.6
2024-02-29T08:17:56.813Z,1002.59
2024-02-29T08:18:56.796Z,1002.61
2024-02-29T08:19:56.767Z,1002.63
2024-02-29T08:20:56.770Z,1002.61
2024-02-29T08:21:56.829Z,1002.65
2024-02-29T08:22:56.770Z,1002.68
2024-02-29T08:23:56.782Z,1002.63
2024-02-29T08:24:56.975Z,1002.57
2024-02-29T08:25:56.975Z,1002.64
2024-02-29T08:26:56.793Z,1002.65
2024-02-29T08:27:56.823Z,1002.61
2024-02-29T08:28:56.776Z,1002.66
2024-02-29T08:29:56.763Z,1002.61
2024-02-29T08:30:56.821Z,1002.58
2024-02-29T08:31:57.788Z,1002.59
2024-02-29T08:33:00.860Z,1002.54
2024-02-29T08:34:03.923Z,1002.52
2024-02-29T08:35:03.483Z,1002.49
2024-02-29T08:35:56.776Z,1002.53
2024-02-29T08:36:56.815Z,1002.51
2024-02-29T08:37:59.793Z,1002.55
2024-02-29T08:39:56.776Z,1002.53
2024-02-29T08:40:56.787Z,1002.54
2024-02-29T08:41:56.798Z,1002.47
2024-02-29T08:42:56.779Z,1002.54
2024-02-29T08:43:56.777Z,1002.55
2024-02-29T08:44:56.769Z,1002.47
2024-02-29T08:45:56.844Z,1002.44
2024-02-29T08:46:57.013Z,1002.5
2024-02-29T08:47:56.832Z,1002.46
2024-02-29T08:48:57.166Z,1002.47
2024-02-29T08:49:56.785Z,1002.46
2024-02-29T08:50:56.772Z,1002.44
2024-02-29T08:51:56.823Z,1002.49
2024-02-29T08:52:57.773Z,1002.45
2024-02-29T08:54:01.131Z,1002.46
2024-02-29T08:55:03.913Z,1002.33
2024-02-29T08:56:03.536Z,1002.36
2024-02-29T08:56:56.787Z,1002.35
2024-02-29T08:57:56.784Z,1002.31
2024-02-29T08:58:56.755Z,1002.27
2024-02-29T08:59:56.767Z,1002.27
2024-02-29T09:00:56.857Z,1002.3
2024-02-29T09:01:56.927Z,1002.25
2024-02-29T09:02:56.771Z,1002.28
2024-02-29T09:03:57.070Z,1002.25
2024-02-29T09:04:56.771Z,1002.21
2024-02-29T09:05:56.778Z,1002.19
2024-02-29T09:06:56.949Z,1002.22
2024-02-29T09:07:57.125Z,1002.23
2024-02-29T09:08:56.769Z,1002.22
2024-02-29T09:09:56.799Z,1002.24
2024-02-29T09:10:56.907Z,1002.19
2024-02-29T09:11:56.808Z,1002.23
2024-02-29T09:12:56.781Z,1002.25
2024-02-29T09:13:58.006Z,1002.2
2024-02-29T09:15:00.960Z,1002.24
2024-02-29T09:16:03.951Z,1002.23
2024-02-29T09:17:03.627Z,1002.15
2024-02-29T09:17:56.805Z,1002.1
2024-02-29T09:18:57.161Z,1002.09
2024-02-29T09:19:56.774Z,1002.17
2024-02-29T09:20:56.776Z,1002.12
2024-02-29T09:21:56.828Z,1002.18
2024-02-29T09:22:56.762Z,1002.07
2024-02-29T09:23:56.762Z,1002.15
2024-02-29T09:24:56.815Z,1002.13
2024-02-29T09:25:56.773Z,1002.12
2024-02-29T09:26:56.805Z,1002.07
2024-02-29T09:27:56.795Z,1002.11
2024-02-29T09:28:56.771Z,1002.04
2024-02-29T09:30:00.787Z,1002.06
2024-02-29T09:31:56.966Z,1002.02
2024-02-29T09:32:56.825Z,1002.05
2024-02-29T09:33:56.790Z,1002.02
2024-02-29T09:34:57.852Z,1001.95
2024-02-29T09:36:01.145Z,1001.98
2024-02-29T09:37:03.979Z,1001.89
2024-02-29T09:38:03.783Z,1001.88
2024-02-29T09:38:56.928Z,1001.88
2024-02-29T09:39:56.796Z,1001.85
2024-02-29T09:41:18.721Z,1001.8
2024-02-29T09:42:11.643Z,1001.78
2024-02-29T09:43:56.763Z,1001.82
2024-02-29T09:44:56.770Z,1001.86
2024-02-29T09:45:56.783Z,1001.91
2024-02-29T09:46:56.769Z,1001.85
2024-02-29T09:47:56.906Z,1001.91
2024-02-29T09:48:56.786Z,1001.94
2024-02-29T09:50:05.146Z,1001.82
2024-02-29T09:51:56.797Z,1001.86
2024-02-29T09:52:56.869Z,1001.89
2024-02-29T09:53:56.772Z,1001.86
2024-02-29T09:54:56.818Z,1001.83
2024-02-29T09:55:57.970Z,1001.77
2024-02-29T09:57:01.131Z,1001.81
2024-02-29T09:58:04.491Z,1001.79
2024-02-29T09:59:03.850Z,1001.78
2024-02-29T09:59:56.957Z,1001.77
2024-02-29T10:00:56.821Z,1001.79
2024-02-29T10:01:56.860Z,1001.8
2024-02-29T10:02:59.858Z,1001.79
2024-02-29T10:04:56.770Z,1001.77
2024-02-29T10:05:56.787Z,1001.8
2024-02-29T10:06:56.794Z,1001.82
2024-02-29T10:07:56.784Z,1001.78
2024-02-29T10:08:56.753Z,1001.78
2024-02-29T10:09:56.789Z,1001.77
2024-02-29T10:10:57.792Z,1001.78
2024-02-29T10:11:56.795Z,1001.78
2024-02-29T10:12:57.324Z,1001.76
2024-02-29T10:13:56.935Z,1001.76
2024-02-29T10:14:56.793Z,1001.76
2024-02-29T10:15:56.779Z,1001.8
2024-02-29T10:16:58.129Z,1001.74
2024-02-29T10:18:01.432Z,1001.71
2024-02-29T10:19:04.584Z,1001.57
2024-02-29T10:20:03.875Z,1001.64
2024-02-29T10:20:56.790Z,1001.61
2024-02-29T10:21:56.796Z,1001.61
2024-02-29T10:22:56.786Z,1001.59
2024-02-29T10:23:56.839Z,1001.73
2024-02-29T10:24:56.913Z,1001.63
2024-02-29T10:25:56.775Z,1001.62
2024-02-29T10:26:56.767Z,1001.69
2024-02-29T10:27:56.801Z,1001.69
2024-02-29T10:28:56.779Z,1001.7
2024-02-29T10:29:56.772Z,1001.62
2024-02-29T10:30:56.780Z,1001.67
2024-02-29T10:31:56.770Z,1001.66
2024-02-29T10:32:56.862Z,1001.6
2024-02-29T10:33:56.791Z,1001.52
2024-02-29T10:34:56.772Z,1001.54
2024-02-29T10:35:56.768Z,1001.51
2024-02-29T10:36:56.799Z,1001.45
2024-02-29T10:37:58.137Z,1001.41
2024-02-29T10:39:01.244Z,1001.32
2024-02-29T10:40:08.535Z,1001.3
2024-02-29T10:41:56.952Z,1001.42
2024-02-29T10:42:57.097Z,1001.47
2024-02-29T10:43:56.762Z,1001.5
2024-02-29T10:44:56.988Z,1001.5
2024-02-29T10:45:56.991Z,1001.48
2024-02-29T10:46:56.780Z,1001.44
2024-02-29T10:47:56.851Z,1001.44
2024-02-29T10:48:56.774Z,1001.41
2024-02-29T10:49:56.765Z,1001.39
2024-02-29T10:50:56.773Z,1001.38
2024-02-29T10:51:56.777Z,1001.33
2024-02-29T10:52:56.803Z,1001.31
2024-02-29T10:53:56.762Z,1001.37
2024-02-29T10:54:56.894Z,1001.23
2024-02-29T10:55:56.764Z,1001.24
2024-02-29T10:56:56.756Z,1001.28
2024-02-29T10:57:56.798Z,1001.33
2024-02-29T10:58:58.178Z,1001.2
2024-02-29T11:00:01.350Z,1001.24
2024-02-29T11:01:02.811Z,1001.19
2024-02-29T11:02:59.785Z,1001.18
2024-02-29T11:04:56.783Z,1001.13
2024-02-29T11:05:56.841Z,1001.14
2024-02-29T11:06:57.103Z,1001.17
2024-02-29T11:07:56.773Z,1001.12
2024-02-29T11:08:56.764Z,1001.06
2024-02-29T11:09:56.816Z,1001.06
2024-02-29T11:10:56.783Z,1001.05
2024-02-29T11:11:56.768Z,1001.1
2024-02-29T11:12:56.799Z,1001.02
2024-02-29T11:13:56.772Z,1000.95
2024-02-29T11:14:56.783Z,1000.92
2024-02-29T11:15:56.812Z,1000.86
2024-02-29T11:16:56.779Z,1000.86
2024-02-29T11:17:56.792Z,1000.88
2024-02-29T11:18:56.803Z,1000.93
2024-02-29T11:20:01.399Z,1000.83
2024-02-29T11:21:01.460Z,1000.89
2024-02-29T11:22:03.787Z,1000.87
2024-02-29T11:23:10.240Z,1000.88
2024-02-29T11:24:56.839Z,1000.78
2024-02-29T11:25:56.827Z,1000.8
2024-02-29T11:26:56.764Z,1000.8
2024-02-29T11:27:56.788Z,1000.75
2024-02-29T11:28:56.777Z,1000.74
2024-02-29T11:29:56.772Z,1000.73
2024-02-29T11:30:56.787Z,1000.76
2024-02-29T11:31:56.828Z,1000.69
2024-02-29T11:32:56.947Z,1000.73
2024-02-29T11:33:56.903Z,1000.74
2024-02-29T11:34:56.776Z,1000.76
2024-02-29T11:35:56.824Z,1000.81
2024-02-29T11:36:56.807Z,1000.77
2024-02-29T11:37:56.778Z,1000.74
2024-02-29T11:38:56.788Z,1000.78
2024-02-29T11:39:56.787Z,1000.78
2024-02-29T11:40:56.766Z,1000.84
2024-02-29T11:41:56.777Z,1000.8
2024-02-29T11:42:59.640Z,1000.83
2024-02-29T11:44:02.483Z,1000.81
2024-02-29T11:45:03.927Z,1000.77
2024-02-29T11:46:56.772Z,1000.73
2024-02-29T11:47:56.764Z,1000.73
2024-02-29T11:48:59.869Z,1000.65
2024-02-29T11:50:56.768Z,1000.63
2024-02-29T11:51:56.988Z,1000.57
2024-02-29T11:52:56.821Z,1000.6
2024-02-29T11:53:56.984Z,1000.55
2024-02-29T11:54:56.780Z,1000.49
2024-02-29T11:56:10.391Z,1000.49
2024-02-29T11:57:56.764Z,1000.53
2024-02-29T11:58:56.787Z,1000.47
2024-02-29T11:59:59.776Z,1000.51
2024-02-29T12:01:56.829Z,1000.48
2024-02-29T12:02:56.764Z,1000.37
2024-02-29T12:03:59.151Z,1000.38
2024-02-29T12:05:02.310Z,1000.42
2024-02-29T12:06:03.404Z,1000.44
2024-02-29T12:07:56.789Z,1000.41
2024-02-29T12:08:56.808Z,1000.39
2024-02-29T12:09:56.774Z,1000.37
2024-02-29T12:10:56.790Z,1000.35
2024-02-29T12:11:56.772Z,1000.32
2024-02-29T12:12:56.815Z,1000.32
2024-02-29T12:13:56.934Z,1000.29
2024-02-29T12:14:57.079Z,1000.2
2024-02-29T12:16:00.098Z,1000.24
2024-02-29T12:17:56.989Z,1000.23
2024-02-29T12:18:56.840Z,1000.28
2024-02-29T12:19:56.779Z,1000.24
2024-02-29T12:20:56.773Z,1000.22
2024-02-29T12:21:59.786Z,1000.26
2024-02-29T12:23:56.786Z,1000.22
2024-02-29T12:24:59.922Z,1000.17
2024-02-29T12:26:02.720Z,1000.23
2024-02-29T12:27:04.043Z,1000.19
2024-02-29T12:28:56.849Z,1000.21
2024-02-29T12:29:56.786Z,1000.2
2024-02-29T12:30:56.791Z,1000.14
2024-02-29T12:31:56.799Z,1000.15
2024-02-29T12:32:56.840Z,1000.11
2024-02-29T12:33:56.900Z,1000
2024-02-29T12:34:56.763Z,999.94
2024-02-29T12:35:57.175Z,999.82
2024-02-29T12:36:57.022Z,999.82
2024-02-29T12:37:56.889Z,999.74
2024-02-29T12:38:56.900Z,999.68
2024-02-29T12:39:56.801Z,999.58
2024-02-29T12:40:56.772Z,999.55
2024-02-29T12:41:56.794Z,999.6
2024-02-29T12:42:56.800Z,999.62
2024-02-29T12:43:56.784Z,999.64
2024-02-29T12:44:56.756Z,999.62
2024-02-29T12:46:00.202Z,999.59